sensor_id;sensor_type;location;lat;lon;timestamp;P1;durP1;ratioP1;P2;durP2;ratioP2
40284;SDS011;25997;50.214;19.354;2023-04-01T00:01:23;7.97;;;4.72;;
40284;SDS011;25997;50.214;19.354;2023-04-01T00:04:25;8.35;;;5.82;;
40284;SDS011;25997;50.214;19.354;2023-04-01T00:07:28;7.63;;;3.65;;
40284;SDS011;25997;50.214;19.354;2023-04-01T00:10:32;5.50;;;3.58;;
40284;SDS011;25997;50.214;19.354;2023-04-01T00:13:35;5.90;;;3.50;;
40284;SDS011;25997;50.214;19.354;2023-04-01T00:16:37;7.57;;;4.93;;
40284;SDS011;25997;50.214;19.354;2023-04-01T00:19:40;6.00;;;3.60;;
40284;SDS011;25997;50.214;19.354;2023-04-01T00:22:42;4.88;;;3.50;;
40284;SDS011;25997;50.214;19.354;2023-04-01T00:25:46;5.72;;;3.40;;
40284;SDS011;25997;50.214;19.354;2023-04-01T00:28:50;4.95;;;3.15;;
40284;SDS011;25997;50.214;19.354;2023-04-01T00:31:52;8.15;;;4.60;;
40284;SDS011;25997;50.214;19.354;2023-04-01T00:34:55;9.73;;;6.72;;
40284;SDS011;25997;50.214;19.354;2023-04-01T00:37:59;6.45;;;4.10;;
40284;SDS011;25997;50.214;19.354;2023-04-01T00:41:03;5.28;;;3.55;;
40284;SDS011;25997;50.214;19.354;2023-04-01T00:44:14;12.40;;;7.53;;
40284;SDS011;25997;50.214;19.354;2023-04-01T00:47:19;6.00;;;3.28;;
40284;SDS011;25997;50.214;19.354;2023-04-01T00:50:22;6.38;;;3.40;;
40284;SDS011;25997;50.214;19.354;2023-04-01T00:53:27;5.43;;;3.05;;
40284;SDS011;25997;50.214;19.354;2023-04-01T00:56:33;5.18;;;3.55;;
40284;SDS011;25997;50.214;19.354;2023-04-01T00:59:39;5.55;;;3.40;;
40284;SDS011;25997;50.214;19.354;2023-04-01T01:02:45;8.52;;;3.97;;
40284;SDS011;25997;50.214;19.354;2023-04-01T01:05:55;6.60;;;3.67;;
40284;SDS011;25997;50.214;19.354;2023-04-01T01:09:12;8.35;;;4.32;;
40284;SDS011;25997;50.214;19.354;2023-04-01T01:12:29;6.22;;;3.80;;
40284;SDS011;25997;50.214;19.354;2023-04-01T01:15:37;6.05;;;3.90;;
40284;SDS011;25997;50.214;19.354;2023-04-01T01:18:47;7.72;;;4.22;;
40284;SDS011;25997;50.214;19.354;2023-04-01T01:22:04;7.72;;;4.43;;
40284;SDS011;25997;50.214;19.354;2023-04-01T01:25:30;7.82;;;4.88;;
40284;SDS011;25997;50.214;19.354;2023-04-01T01:28:45;7.18;;;4.95;;
40284;SDS011;25997;50.214;19.354;2023-04-01T01:31:55;10.07;;;7.05;;
40284;SDS011;25997;50.214;19.354;2023-04-01T01:35:10;9.70;;;6.43;;
40284;SDS011;25997;50.214;19.354;2023-04-01T01:38:22;9.20;;;6.78;;
40284;SDS011;25997;50.214;19.354;2023-04-01T01:41:37;11.23;;;7.45;;
40284;SDS011;25997;50.214;19.354;2023-04-01T01:44:44;10.88;;;7.85;;
40284;SDS011;25997;50.214;19.354;2023-04-01T01:47:49;10.98;;;8.13;;
40284;SDS011;25997;50.214;19.354;2023-04-01T01:50:54;14.07;;;9.18;;
40284;SDS011;25997;50.214;19.354;2023-04-01T01:53:57;12.43;;;8.35;;
40284;SDS011;25997;50.214;19.354;2023-04-01T01:57:01;11.20;;;8.23;;
40284;SDS011;25997;50.214;19.354;2023-04-01T02:00:09;10.52;;;8.80;;
40284;SDS011;25997;50.214;19.354;2023-04-01T02:03:17;11.02;;;8.68;;
40284;SDS011;25997;50.214;19.354;2023-04-01T02:06:25;10.70;;;8.57;;
40284;SDS011;25997;50.214;19.354;2023-04-01T02:09:30;10.05;;;8.30;;
40284;SDS011;25997;50.214;19.354;2023-04-01T02:12:35;9.88;;;7.75;;
40284;SDS011;25997;50.214;19.354;2023-04-01T02:15:41;10.38;;;7.82;;
40284;SDS011;25997;50.214;19.354;2023-04-01T02:18:49;9.02;;;6.68;;
40284;SDS011;25997;50.214;19.354;2023-04-01T02:21:57;9.80;;;6.03;;
40284;SDS011;25997;50.214;19.354;2023-04-01T02:25:04;9.88;;;6.38;;
40284;SDS011;25997;50.214;19.354;2023-04-01T02:28:10;8.90;;;6.22;;
40284;SDS011;25997;50.214;19.354;2023-04-01T02:31:17;7.32;;;5.82;;
40284;SDS011;25997;50.214;19.354;2023-04-01T02:34:21;8.05;;;5.68;;
40284;SDS011;25997;50.214;19.354;2023-04-01T02:37:26;8.55;;;6.47;;
40284;SDS011;25997;50.214;19.354;2023-04-01T02:40:28;11.15;;;7.13;;
40284;SDS011;25997;50.214;19.354;2023-04-01T02:43:31;12.90;;;7.95;;
40284;SDS011;25997;50.214;19.354;2023-04-01T02:46:34;10.93;;;6.60;;
40284;SDS011;25997;50.214;19.354;2023-04-01T02:49:36;7.63;;;6.40;;
40284;SDS011;25997;50.214;19.354;2023-04-01T02:52:40;10.77;;;6.35;;
40284;SDS011;25997;50.214;19.354;2023-04-01T02:55:42;11.95;;;7.15;;
40284;SDS011;25997;50.214;19.354;2023-04-01T02:58:45;10.18;;;7.65;;
40284;SDS011;25997;50.214;19.354;2023-04-01T03:01:48;8.88;;;6.40;;
40284;SDS011;25997;50.214;19.354;2023-04-01T03:04:50;6.78;;;5.45;;
40284;SDS011;25997;50.214;19.354;2023-04-01T03:07:54;8.07;;;5.70;;
40284;SDS011;25997;50.214;19.354;2023-04-01T03:10:57;6.65;;;5.00;;
40284;SDS011;25997;50.214;19.354;2023-04-01T03:14:00;5.90;;;4.75;;
40284;SDS011;25997;50.214;19.354;2023-04-01T03:17:02;9.20;;;5.50;;
40284;SDS011;25997;50.214;19.354;2023-04-01T03:20:07;8.93;;;5.68;;
40284;SDS011;25997;50.214;19.354;2023-04-01T03:23:12;7.78;;;6.07;;
40284;SDS011;25997;50.214;19.354;2023-04-01T03:26:17;6.80;;;5.40;;
40284;SDS011;25997;50.214;19.354;2023-04-01T03:29:22;8.38;;;5.75;;
40284;SDS011;25997;50.214;19.354;2023-04-01T03:32:24;8.52;;;5.32;;
40284;SDS011;25997;50.214;19.354;2023-04-01T03:35:27;7.95;;;5.22;;
40284;SDS011;25997;50.214;19.354;2023-04-01T03:38:32;6.65;;;4.82;;
40284;SDS011;25997;50.214;19.354;2023-04-01T03:41:35;8.95;;;4.88;;
40284;SDS011;25997;50.214;19.354;2023-04-01T03:44:37;6.63;;;4.68;;
40284;SDS011;25997;50.214;19.354;2023-04-01T03:47:40;7.20;;;5.07;;
40284;SDS011;25997;50.214;19.354;2023-04-01T03:50:43;7.20;;;5.25;;
40284;SDS011;25997;50.214;19.354;2023-04-01T03:53:47;8.25;;;5.47;;
40284;SDS011;25997;50.214;19.354;2023-04-01T03:56:51;11.27;;;6.90;;
40284;SDS011;25997;50.214;19.354;2023-04-01T03:59:54;8.93;;;7.22;;
40284;SDS011;25997;50.214;19.354;2023-04-01T04:02:57;14.13;;;10.70;;
40284;SDS011;25997;50.214;19.354;2023-04-01T04:06:05;12.27;;;9.15;;
40284;SDS011;25997;50.214;19.354;2023-04-01T04:09:13;12.77;;;8.98;;
40284;SDS011;25997;50.214;19.354;2023-04-01T04:12:16;13.85;;;11.65;;
40284;SDS011;25997;50.214;19.354;2023-04-01T04:15:19;17.13;;;12.32;;
40284;SDS011;25997;50.214;19.354;2023-04-01T04:18:21;17.73;;;14.57;;
40284;SDS011;25997;50.214;19.354;2023-04-01T04:21:24;12.23;;;8.98;;
40284;SDS011;25997;50.214;19.354;2023-04-01T04:24:28;16.67;;;14.57;;
40284;SDS011;25997;50.214;19.354;2023-04-01T04:27:40;12.38;;;10.75;;
40284;SDS011;25997;50.214;19.354;2023-04-01T04:30:45;25.80;;;23.13;;
40284;SDS011;25997;50.214;19.354;2023-04-01T04:33:48;16.40;;;10.52;;
40284;SDS011;25997;50.214;19.354;2023-04-01T04:36:52;10.93;;;7.47;;
40284;SDS011;25997;50.214;19.354;2023-04-01T04:39:57;23.23;;;21.13;;
40284;SDS011;25997;50.214;19.354;2023-04-01T04:43:01;10.00;;;8.20;;
40284;SDS011;25997;50.214;19.354;2023-04-01T04:46:04;14.93;;;11.18;;
40284;SDS011;25997;50.214;19.354;2023-04-01T04:49:07;12.63;;;6.88;;
40284;SDS011;25997;50.214;19.354;2023-04-01T04:52:09;12.45;;;6.30;;
40284;SDS011;25997;50.214;19.354;2023-04-01T04:55:13;9.93;;;7.68;;
40284;SDS011;25997;50.214;19.354;2023-04-01T04:58:19;11.95;;;7.93;;
40284;SDS011;25997;50.214;19.354;2023-04-01T05:01:23;14.40;;;11.73;;
40284;SDS011;25997;50.214;19.354;2023-04-01T05:04:25;9.93;;;5.32;;
40284;SDS011;25997;50.214;19.354;2023-04-01T05:07:28;12.55;;;8.27;;
40284;SDS011;25997;50.214;19.354;2023-04-01T05:10:32;11.85;;;7.90;;
40284;SDS011;25997;50.214;19.354;2023-04-01T05:13:35;10.77;;;7.55;;
40284;SDS011;25997;50.214;19.354;2023-04-01T05:16:37;9.13;;;6.93;;
40284;SDS011;25997;50.214;19.354;2023-04-01T05:19:40;10.75;;;7.57;;
40284;SDS011;25997;50.214;19.354;2023-04-01T05:22:43;11.90;;;10.50;;
40284;SDS011;25997;50.214;19.354;2023-04-01T05:25:47;7.10;;;6.18;;
40284;SDS011;25997;50.214;19.354;2023-04-01T05:28:50;8.93;;;7.25;;
40284;SDS011;25997;50.214;19.354;2023-04-01T05:31:53;7.60;;;6.00;;
40284;SDS011;25997;50.214;19.354;2023-04-01T05:34:55;13.85;;;9.32;;
40284;SDS011;25997;50.214;19.354;2023-04-01T05:37:58;8.48;;;6.55;;
40284;SDS011;25997;50.214;19.354;2023-04-01T05:41:02;6.85;;;4.63;;
40284;SDS011;25997;50.214;19.354;2023-04-01T05:44:10;10.25;;;5.28;;
40284;SDS011;25997;50.214;19.354;2023-04-01T05:47:14;8.85;;;5.65;;
40284;SDS011;25997;50.214;19.354;2023-04-01T05:50:16;12.57;;;8.70;;
40284;SDS011;25997;50.214;19.354;2023-04-01T05:53:19;7.75;;;4.90;;
40284;SDS011;25997;50.214;19.354;2023-04-01T05:56:24;8.40;;;5.25;;
40284;SDS011;25997;50.214;19.354;2023-04-01T05:59:27;10.60;;;7.10;;
40284;SDS011;25997;50.214;19.354;2023-04-01T06:02:32;14.45;;;6.53;;
40284;SDS011;25997;50.214;19.354;2023-04-01T06:05:37;31.23;;;21.00;;
40284;SDS011;25997;50.214;19.354;2023-04-01T06:08:41;8.48;;;5.30;;
40284;SDS011;25997;50.214;19.354;2023-04-01T06:11:51;8.68;;;5.50;;
40284;SDS011;25997;50.214;19.354;2023-04-01T06:15:13;7.40;;;5.47;;
40284;SDS011;25997;50.214;19.354;2023-04-01T06:22:10;8.88;;;5.40;;
40284;SDS011;25997;50.214;19.354;2023-04-01T06:25:36;11.75;;;8.15;;
40284;SDS011;25997;50.214;19.354;2023-04-01T06:29:02;8.20;;;5.18;;
40284;SDS011;25997;50.214;19.354;2023-04-01T06:32:45;7.35;;;5.18;;
40284;SDS011;25997;50.214;19.354;2023-04-01T06:36:06;9.32;;;5.85;;
40284;SDS011;25997;50.214;19.354;2023-04-01T06:39:32;10.82;;;4.97;;
40284;SDS011;25997;50.214;19.354;2023-04-01T06:43:01;7.35;;;5.93;;
40284;SDS011;25997;50.214;19.354;2023-04-01T06:46:36;12.93;;;8.75;;
40284;SDS011;25997;50.214;19.354;2023-04-01T06:50:06;9.60;;;6.00;;
40284;SDS011;25997;50.214;19.354;2023-04-01T06:53:38;15.02;;;11.18;;
40284;SDS011;25997;50.214;19.354;2023-04-01T06:56:48;18.88;;;11.35;;
40284;SDS011;25997;50.214;19.354;2023-04-01T06:59:58;15.30;;;11.73;;
40284;SDS011;25997;50.214;19.354;2023-04-01T07:03:10;32.25;;;27.85;;
40284;SDS011;25997;50.214;19.354;2023-04-01T07:06:23;25.77;;;23.08;;
40284;SDS011;25997;50.214;19.354;2023-04-01T07:09:32;12.13;;;7.70;;
40284;SDS011;25997;50.214;19.354;2023-04-01T07:12:58;13.70;;;9.45;;
40284;SDS011;25997;50.214;19.354;2023-04-01T07:16:30;17.85;;;13.18;;
40284;SDS011;25997;50.214;19.354;2023-04-01T07:19:39;10.95;;;6.70;;
40284;SDS011;25997;50.214;19.354;2023-04-01T07:22:48;14.68;;;11.68;;
40284;SDS011;25997;50.214;19.354;2023-04-01T07:26:23;10.25;;;7.28;;
40284;SDS011;25997;50.214;19.354;2023-04-01T07:29:40;8.40;;;6.28;;
40284;SDS011;25997;50.214;19.354;2023-04-01T07:32:46;10.93;;;7.78;;
40284;SDS011;25997;50.214;19.354;2023-04-01T07:35:54;10.57;;;6.47;;
40284;SDS011;25997;50.214;19.354;2023-04-01T07:39:05;11.27;;;6.57;;
40284;SDS011;25997;50.214;19.354;2023-04-01T07:42:30;18.30;;;12.63;;
40284;SDS011;25997;50.214;19.354;2023-04-01T07:45:46;20.20;;;14.30;;
40284;SDS011;25997;50.214;19.354;2023-04-01T07:48:57;44.03;;;33.53;;
40284;SDS011;25997;50.214;19.354;2023-04-01T07:52:07;36.63;;;27.87;;
40284;SDS011;25997;50.214;19.354;2023-04-01T07:55:21;7.65;;;3.95;;
40284;SDS011;25997;50.214;19.354;2023-04-01T07:58:30;13.30;;;9.10;;
40284;SDS011;25997;50.214;19.354;2023-04-01T08:01:45;10.23;;;8.23;;
40284;SDS011;25997;50.214;19.354;2023-04-01T08:04:55;7.17;;;3.87;;
40284;SDS011;25997;50.214;19.354;2023-04-01T08:08:08;7.03;;;5.78;;
40284;SDS011;25997;50.214;19.354;2023-04-01T08:11:46;9.63;;;3.90;;
40284;SDS011;25997;50.214;19.354;2023-04-01T08:15:19;8.70;;;5.85;;
40284;SDS011;25997;50.214;19.354;2023-04-01T08:18:37;6.82;;;5.70;;
40284;SDS011;25997;50.214;19.354;2023-04-01T08:21:47;5.75;;;3.92;;
40284;SDS011;25997;50.214;19.354;2023-04-01T08:24:55;8.23;;;5.60;;
40284;SDS011;25997;50.214;19.354;2023-04-01T08:28:02;5.10;;;3.15;;
40284;SDS011;25997;50.214;19.354;2023-04-01T08:31:12;8.63;;;5.88;;
40284;SDS011;25997;50.214;19.354;2023-04-01T08:34:21;6.80;;;4.38;;
40284;SDS011;25997;50.214;19.354;2023-04-01T08:37:31;8.95;;;5.22;;
40284;SDS011;25997;50.214;19.354;2023-04-01T08:40:52;11.98;;;6.60;;
40284;SDS011;25997;50.214;19.354;2023-04-01T08:44:47;7.03;;;3.90;;
40284;SDS011;25997;50.214;19.354;2023-04-01T08:52:11;9.50;;;4.18;;
40284;SDS011;25997;50.214;19.354;2023-04-01T08:55:47;10.75;;;6.53;;
40284;SDS011;25997;50.214;19.354;2023-04-01T09:06:32;7.10;;;4.03;;
40284;SDS011;25997;50.214;19.354;2023-04-01T09:09:46;4.30;;;3.42;;
40284;SDS011;25997;50.214;19.354;2023-04-01T09:13:13;7.32;;;6.50;;
40284;SDS011;25997;50.214;19.354;2023-04-01T09:16:35;15.48;;;11.45;;
40284;SDS011;25997;50.214;19.354;2023-04-01T09:20:04;7.28;;;4.35;;
40284;SDS011;25997;50.214;19.354;2023-04-01T09:27:20;6.70;;;4.65;;
40284;SDS011;25997;50.214;19.354;2023-04-01T09:30:40;5.78;;;3.60;;
40284;SDS011;25997;50.214;19.354;2023-04-01T09:34:12;9.32;;;5.40;;
40284;SDS011;25997;50.214;19.354;2023-04-01T09:37:40;7.60;;;5.75;;
40284;SDS011;25997;50.214;19.354;2023-04-01T09:41:00;7.05;;;6.00;;
40284;SDS011;25997;50.214;19.354;2023-04-01T09:44:29;10.52;;;7.45;;
40284;SDS011;25997;50.214;19.354;2023-04-01T09:47:50;7.57;;;5.72;;
40284;SDS011;25997;50.214;19.354;2023-04-01T09:54:25;7.00;;;4.88;;
40284;SDS011;25997;50.214;19.354;2023-04-01T09:57:50;7.63;;;5.50;;
40284;SDS011;25997;50.214;19.354;2023-04-01T10:01:51;8.02;;;5.20;;
40284;SDS011;25997;50.214;19.354;2023-04-01T10:05:33;4.72;;;3.88;;
40284;SDS011;25997;50.214;19.354;2023-04-01T10:09:20;20.58;;;17.20;;
40284;SDS011;25997;50.214;19.354;2023-04-01T10:20:19;6.80;;;6.10;;
40284;SDS011;25997;50.214;19.354;2023-04-01T10:27:13;8.43;;;7.57;;
40284;SDS011;25997;50.214;19.354;2023-04-01T10:42:00;5.68;;;3.72;;
40284;SDS011;25997;50.214;19.354;2023-04-01T10:49:27;6.20;;;4.68;;
40284;SDS011;25997;50.214;19.354;2023-04-01T10:52:53;8.68;;;4.68;;
40284;SDS011;25997;50.214;19.354;2023-04-01T10:56:36;8.98;;;6.63;;
40284;SDS011;25997;50.214;19.354;2023-04-01T11:00:00;22.25;;;11.85;;
40284;SDS011;25997;50.214;19.354;2023-04-01T11:08:00;14.05;;;8.25;;
40284;SDS011;25997;50.214;19.354;2023-04-01T11:11:34;5.60;;;3.70;;
40284;SDS011;25997;50.214;19.354;2023-04-01T11:15:28;5.38;;;3.80;;
40284;SDS011;25997;50.214;19.354;2023-04-01T11:18:58;8.77;;;6.28;;
40284;SDS011;25997;50.214;19.354;2023-04-01T11:22:50;9.35;;;7.22;;
40284;SDS011;25997;50.214;19.354;2023-04-01T11:26:07;7.65;;;6.85;;
40284;SDS011;25997;50.214;19.354;2023-04-01T11:29:43;6.93;;;6.07;;
40284;SDS011;25997;50.214;19.354;2023-04-01T11:32:59;14.95;;;13.45;;
40284;SDS011;25997;50.214;19.354;2023-04-01T11:39:20;16.00;;;11.18;;
40284;SDS011;25997;50.214;19.354;2023-04-01T11:42:53;10.38;;;6.20;;
40284;SDS011;25997;50.214;19.354;2023-04-01T11:46:23;4.40;;;3.30;;
40284;SDS011;25997;50.214;19.354;2023-04-01T11:49:36;5.53;;;4.82;;
40284;SDS011;25997;50.214;19.354;2023-04-01T11:53:00;5.57;;;4.35;;
40284;SDS011;25997;50.214;19.354;2023-04-01T11:56:14;4.75;;;3.45;;
40284;SDS011;25997;50.214;19.354;2023-04-01T12:03:10;5.38;;;4.00;;
40284;SDS011;25997;50.214;19.354;2023-04-01T12:06:35;5.28;;;3.58;;
40284;SDS011;25997;50.214;19.354;2023-04-01T12:09:48;4.72;;;2.60;;
40284;SDS011;25997;50.214;19.354;2023-04-01T12:13:02;5.18;;;4.35;;
40284;SDS011;25997;50.214;19.354;2023-04-01T12:16:19;5.47;;;4.88;;
40284;SDS011;25997;50.214;19.354;2023-04-01T12:19:31;3.95;;;2.75;;
40284;SDS011;25997;50.214;19.354;2023-04-01T12:22:45;2.55;;;1.88;;
40284;SDS011;25997;50.214;19.354;2023-04-01T12:26:00;4.45;;;3.35;;
40284;SDS011;25997;50.214;19.354;2023-04-01T12:29:35;3.67;;;2.38;;
40284;SDS011;25997;50.214;19.354;2023-04-01T12:32:47;4.07;;;2.28;;
40284;SDS011;25997;50.214;19.354;2023-04-01T12:36:00;7.35;;;4.00;;
40284;SDS011;25997;50.214;19.354;2023-04-01T12:39:22;5.40;;;3.40;;
40284;SDS011;25997;50.214;19.354;2023-04-01T12:42:44;3.08;;;2.30;;
40284;SDS011;25997;50.214;19.354;2023-04-01T12:46:01;3.60;;;2.38;;
40284;SDS011;25997;50.214;19.354;2023-04-01T12:49:26;3.35;;;2.03;;
40284;SDS011;25997;50.214;19.354;2023-04-01T12:52:44;4.30;;;2.67;;
40284;SDS011;25997;50.214;19.354;2023-04-01T12:56:03;4.00;;;2.70;;
40284;SDS011;25997;50.214;19.354;2023-04-01T12:59:18;3.30;;;2.30;;
40284;SDS011;25997;50.214;19.354;2023-04-01T13:02:46;5.18;;;3.50;;
40284;SDS011;25997;50.214;19.354;2023-04-01T13:06:16;4.22;;;2.42;;
40284;SDS011;25997;50.214;19.354;2023-04-01T13:09:36;4.93;;;2.85;;
40284;SDS011;25997;50.214;19.354;2023-04-01T13:12:56;3.22;;;2.60;;
40284;SDS011;25997;50.214;19.354;2023-04-01T13:16:11;9.02;;;5.38;;
40284;SDS011;25997;50.214;19.354;2023-04-01T13:19:19;5.13;;;3.17;;
40284;SDS011;25997;50.214;19.354;2023-04-01T13:22:32;8.25;;;4.97;;
40284;SDS011;25997;50.214;19.354;2023-04-01T13:25:46;7.53;;;4.45;;
40284;SDS011;25997;50.214;19.354;2023-04-01T13:28:57;6.68;;;4.35;;
40284;SDS011;25997;50.214;19.354;2023-04-01T13:32:11;6.28;;;4.65;;
40284;SDS011;25997;50.214;19.354;2023-04-01T13:35:27;6.50;;;4.80;;
40284;SDS011;25997;50.214;19.354;2023-04-01T13:42:16;8.27;;;6.15;;
40284;SDS011;25997;50.214;19.354;2023-04-01T13:45:29;7.22;;;5.63;;
40284;SDS011;25997;50.214;19.354;2023-04-01T13:48:45;15.32;;;11.40;;
40284;SDS011;25997;50.214;19.354;2023-04-01T13:52:23;11.30;;;7.63;;
40284;SDS011;25997;50.214;19.354;2023-04-01T13:55:55;7.10;;;5.50;;
40284;SDS011;25997;50.214;19.354;2023-04-01T13:59:20;6.73;;;5.17;;
40284;SDS011;25997;50.214;19.354;2023-04-01T14:02:45;8.95;;;5.68;;
40284;SDS011;25997;50.214;19.354;2023-04-01T14:05:55;4.97;;;4.20;;
40284;SDS011;25997;50.214;19.354;2023-04-01T14:09:14;7.93;;;4.50;;
40284;SDS011;25997;50.214;19.354;2023-04-01T14:12:38;6.88;;;4.40;;
40284;SDS011;25997;50.214;19.354;2023-04-01T14:15:52;6.68;;;5.32;;
40284;SDS011;25997;50.214;19.354;2023-04-01T14:19:08;8.73;;;6.07;;
40284;SDS011;25997;50.214;19.354;2023-04-01T14:22:22;10.70;;;6.80;;
40284;SDS011;25997;50.214;19.354;2023-04-01T14:25:33;7.13;;;4.43;;
40284;SDS011;25997;50.214;19.354;2023-04-01T14:28:53;5.57;;;3.90;;
40284;SDS011;25997;50.214;19.354;2023-04-01T14:32:07;6.95;;;4.65;;
40284;SDS011;25997;50.214;19.354;2023-04-01T14:35:19;4.22;;;3.08;;
40284;SDS011;25997;50.214;19.354;2023-04-01T14:38:39;4.72;;;2.53;;
40284;SDS011;25997;50.214;19.354;2023-04-01T14:41:57;4.65;;;3.50;;
40284;SDS011;25997;50.214;19.354;2023-04-01T14:45:30;5.43;;;4.25;;
40284;SDS011;25997;50.214;19.354;2023-04-01T14:48:57;7.75;;;6.47;;
40284;SDS011;25997;50.214;19.354;2023-04-01T14:52:04;7.22;;;6.47;;
40284;SDS011;25997;50.214;19.354;2023-04-01T14:55:19;15.18;;;13.40;;
40284;SDS011;25997;50.214;19.354;2023-04-01T14:58:38;64.40;;;29.65;;
40284;SDS011;25997;50.214;19.354;2023-04-01T15:01:50;69.85;;;39.00;;
40284;SDS011;25997;50.214;19.354;2023-04-01T15:05:00;17.30;;;13.18;;
40284;SDS011;25997;50.214;19.354;2023-04-01T15:08:15;8.10;;;6.50;;
40284;SDS011;25997;50.214;19.354;2023-04-01T15:11:29;47.65;;;27.10;;
40284;SDS011;25997;50.214;19.354;2023-04-01T15:18:18;57.55;;;28.33;;
40284;SDS011;25997;50.214;19.354;2023-04-01T15:21:41;13.77;;;7.47;;
40284;SDS011;25997;50.214;19.354;2023-04-01T15:24:56;46.75;;;21.98;;
40284;SDS011;25997;50.214;19.354;2023-04-01T15:28:09;30.48;;;14.48;;
40284;SDS011;25997;50.214;19.354;2023-04-01T15:31:21;35.45;;;15.88;;
40284;SDS011;25997;50.214;19.354;2023-04-01T15:34:32;26.70;;;15.77;;
40284;SDS011;25997;50.214;19.354;2023-04-01T15:37:43;56.90;;;32.17;;
40284;SDS011;25997;50.214;19.354;2023-04-01T15:40:53;113.30;;;65.25;;
40284;SDS011;25997;50.214;19.354;2023-04-01T15:44:24;72.97;;;48.00;;
40284;SDS011;25997;50.214;19.354;2023-04-01T15:58:06;19.55;;;17.20;;
40284;SDS011;25997;50.214;19.354;2023-04-01T16:01:35;71.07;;;56.28;;
40284;SDS011;25997;50.214;19.354;2023-04-01T16:04:50;14.40;;;12.70;;
40284;SDS011;25997;50.214;19.354;2023-04-01T16:08:02;21.58;;;16.35;;
40284;SDS011;25997;50.214;19.354;2023-04-01T16:11:30;20.70;;;18.55;;
40284;SDS011;25997;50.214;19.354;2023-04-01T16:14:44;29.85;;;27.08;;
40284;SDS011;25997;50.214;19.354;2023-04-01T16:21:35;20.67;;;18.50;;
40284;SDS011;25997;50.214;19.354;2023-04-01T16:24:44;23.00;;;20.50;;
40284;SDS011;25997;50.214;19.354;2023-04-01T16:27:54;23.73;;;21.13;;
40284;SDS011;25997;50.214;19.354;2023-04-01T16:31:05;19.52;;;17.50;;
40284;SDS011;25997;50.214;19.354;2023-04-01T16:34:14;21.10;;;16.88;;
40284;SDS011;25997;50.214;19.354;2023-04-01T16:37:20;17.40;;;15.63;;
40284;SDS011;25997;50.214;19.354;2023-04-01T16:40:37;19.50;;;17.45;;
40284;SDS011;25997;50.214;19.354;2023-04-01T16:43:46;20.27;;;17.08;;
40284;SDS011;25997;50.214;19.354;2023-04-01T16:46:55;17.95;;;16.00;;
40284;SDS011;25997;50.214;19.354;2023-04-01T16:50:05;14.75;;;12.98;;
40284;SDS011;25997;50.214;19.354;2023-04-01T16:53:14;15.52;;;13.48;;
40284;SDS011;25997;50.214;19.354;2023-04-01T16:56:21;15.98;;;13.80;;
40284;SDS011;25997;50.214;19.354;2023-04-01T16:59:28;20.02;;;15.45;;
40284;SDS011;25997;50.214;19.354;2023-04-01T17:02:37;15.10;;;13.25;;
40284;SDS011;25997;50.214;19.354;2023-04-01T17:05:56;51.28;;;43.75;;
40284;SDS011;25997;50.214;19.354;2023-04-01T17:09:15;26.52;;;23.08;;
40284;SDS011;25997;50.214;19.354;2023-04-01T17:12:28;21.52;;;16.92;;
40284;SDS011;25997;50.214;19.354;2023-04-01T17:15:39;22.92;;;20.52;;
40284;SDS011;25997;50.214;19.354;2023-04-01T17:18:49;26.95;;;23.95;;
40284;SDS011;25997;50.214;19.354;2023-04-01T17:22:01;18.75;;;16.75;;
40284;SDS011;25997;50.214;19.354;2023-04-01T17:25:21;22.45;;;15.25;;
40284;SDS011;25997;50.214;19.354;2023-04-01T17:28:37;16.92;;;14.55;;
40284;SDS011;25997;50.214;19.354;2023-04-01T17:31:52;20.02;;;16.38;;
40284;SDS011;25997;50.214;19.354;2023-04-01T17:35:04;21.13;;;16.85;;
40284;SDS011;25997;50.214;19.354;2023-04-01T17:38:13;20.00;;;16.55;;
40284;SDS011;25997;50.214;19.354;2023-04-01T17:41:25;19.73;;;17.33;;
40284;SDS011;25997;50.214;19.354;2023-04-01T17:44:38;18.10;;;16.15;;
40284;SDS011;25997;50.214;19.354;2023-04-01T17:48:03;15.98;;;14.27;;
40284;SDS011;25997;50.214;19.354;2023-04-01T17:51:19;21.75;;;18.27;;
40284;SDS011;25997;50.214;19.354;2023-04-01T17:54:31;20.40;;;16.52;;
40284;SDS011;25997;50.214;19.354;2023-04-01T17:57:45;23.50;;;16.77;;
40284;SDS011;25997;50.214;19.354;2023-04-01T18:08:08;28.40;;;24.08;;
40284;SDS011;25997;50.214;19.354;2023-04-01T18:11:16;27.45;;;23.45;;
40284;SDS011;25997;50.214;19.354;2023-04-01T18:14:37;33.88;;;26.70;;
40284;SDS011;25997;50.214;19.354;2023-04-01T18:17:58;21.87;;;18.10;;
40284;SDS011;25997;50.214;19.354;2023-04-01T18:21:12;22.25;;;17.92;;
40284;SDS011;25997;50.214;19.354;2023-04-01T18:24:26;24.13;;;19.08;;
40284;SDS011;25997;50.214;19.354;2023-04-01T18:27:31;30.80;;;24.30;;
40284;SDS011;25997;50.214;19.354;2023-04-01T18:30:40;51.00;;;36.80;;
40284;SDS011;25997;50.214;19.354;2023-04-01T18:33:46;63.05;;;42.80;;
40284;SDS011;25997;50.214;19.354;2023-04-01T18:36:58;78.47;;;54.47;;
40284;SDS011;25997;50.214;19.354;2023-04-01T18:40:11;43.80;;;32.90;;
40284;SDS011;25997;50.214;19.354;2023-04-01T18:43:21;29.15;;;21.95;;
40284;SDS011;25997;50.214;19.354;2023-04-01T18:46:39;95.90;;;59.78;;
40284;SDS011;25997;50.214;19.354;2023-04-01T18:49:52;61.38;;;35.78;;
40284;SDS011;25997;50.214;19.354;2023-04-01T18:53:12;98.37;;;53.00;;
40284;SDS011;25997;50.214;19.354;2023-04-01T18:56:23;113.22;;;61.03;;
40284;SDS011;25997;50.214;19.354;2023-04-01T19:02:35;143.35;;;71.53;;
40284;SDS011;25997;50.214;19.354;2023-04-01T19:05:44;186.48;;;88.63;;
40284;SDS011;25997;50.214;19.354;2023-04-01T19:08:50;193.30;;;93.97;;
40284;SDS011;25997;50.214;19.354;2023-04-01T19:11:58;184.05;;;90.03;;
40284;SDS011;25997;50.214;19.354;2023-04-01T19:15:27;139.73;;;77.05;;
40284;SDS011;25997;50.214;19.354;2023-04-01T19:18:48;71.57;;;44.72;;
40284;SDS011;25997;50.214;19.354;2023-04-01T19:22:19;60.92;;;37.47;;
40284;SDS011;25997;50.214;19.354;2023-04-01T19:25:31;69.65;;;42.47;;
40284;SDS011;25997;50.214;19.354;2023-04-01T19:28:41;83.53;;;47.45;;
40284;SDS011;25997;50.214;19.354;2023-04-01T19:31:55;126.35;;;72.10;;
40284;SDS011;25997;50.214;19.354;2023-04-01T19:35:13;110.60;;;65.22;;
40284;SDS011;25997;50.214;19.354;2023-04-01T19:38:28;101.30;;;57.70;;
40284;SDS011;25997;50.214;19.354;2023-04-01T19:41:38;35.33;;;27.60;;
40284;SDS011;25997;50.214;19.354;2023-04-01T19:44:49;24.70;;;21.83;;
40284;SDS011;25997;50.214;19.354;2023-04-01T19:48:05;31.10;;;24.42;;
40284;SDS011;25997;50.214;19.354;2023-04-01T19:51:22;120.75;;;54.63;;
40284;SDS011;25997;50.214;19.354;2023-04-01T19:54:33;27.17;;;22.80;;
40284;SDS011;25997;50.214;19.354;2023-04-01T19:57:45;21.38;;;18.77;;
40284;SDS011;25997;50.214;19.354;2023-04-01T20:00:53;89.88;;;43.90;;
40284;SDS011;25997;50.214;19.354;2023-04-01T20:04:00;63.78;;;39.90;;
40284;SDS011;25997;50.214;19.354;2023-04-01T20:07:07;143.40;;;69.55;;
40284;SDS011;25997;50.214;19.354;2023-04-01T20:10:14;78.55;;;42.65;;
40284;SDS011;25997;50.214;19.354;2023-04-01T20:13:24;48.65;;;29.85;;
40284;SDS011;25997;50.214;19.354;2023-04-01T20:16:43;86.40;;;46.75;;
40284;SDS011;25997;50.214;19.354;2023-04-01T20:20:13;71.97;;;46.45;;
40284;SDS011;25997;50.214;19.354;2023-04-01T20:23:32;46.05;;;30.73;;
40284;SDS011;25997;50.214;19.354;2023-04-01T20:26:42;28.55;;;23.80;;